ASN logo
ASN Wikibase Occurrence # 230991
Last updated: 10 December 2019
This information is added by users of ASN. Neither ASN nor the Flight Safety Foundation are responsible for the completeness or correctness of this information. If you feel this information is incomplete or incorrect, you can submit corrected information.

Date:30-NOV-2019
Time:c. 12:30
Type:Silhouette image of generic PC12 model; specific model in this crash may look slightly different
Pilatus PC-12/47E
Owner/operator:Conrad & Bischoff Inc
Registration: N56KJ
C/n / msn: 1431
Fatalities:Fatalities: 9 / Occupants: 12
Other fatalities:0
Aircraft damage: Written off (damaged beyond repair)
Location:near Chamberlain Municipal Airport (9V9), Brule County, SD -   United States of America
Phase: Initial climb
Nature:Executive
Departure airport:Chamberlain Municipal Airport, SD (K9V9)
Destination airport:Idaho Falls Regional Airport, ID (IDA/KIDA)
Narrative:
A Pilatus PC-12/47E, registered N56K, was destroyed when it impacted cornfield terrain during a weather related crash shortly after takeoff from Chamberlain Municipal Airoprt (K9V9), about 30 miles west of Chamberlain, Brule County, South Dakota.
The pilot and eight passengers from the eleven onboard sustained fatal injures. The surviving three passengers are in stable condition.

The passengers ranged in age from 7 to 81. The three survivors were three men ages 28, 27 and 17.

Weather at Chamberlain Municipal Airport about the accident time (1830Z):
K9V9 301855Z AUTO 01007KT 1/2SM SN OVC005 01/01 A2929 RMK AO2 P0001 T00080008
K9V9 301835Z AUTO 02006KT 1/2SM SN OVC005 01/01 A2930 RMK AO2 T00080008
K9V9 301815Z AUTO 02007KT 3/4SM -SN OVC005 01/01 A2930 RMK AO2 T00080008

Sources:

https://www.ntsb.gov/news/press-releases/Pages/nr20191202.aspx
https://eu.argusleader.com/story/news/2019/11/30/plane-crash-reported-south-chamberlain/4341917002/
https://edition.cnn.com/2019/11/30/us/south-dakota-plane-crash/index.html
https://kelo.com/news/articles/2019/nov/30/reported-plane-crash-south-of-chamberlain/962405/
https://www.ksfy.com/content/news/Plane-c-565643592.html
https://www.google.com/amp/s/www.keloland.com/news/local-news/plane-crashes-south-of-chamblerlain/amp/

https://wxow.com/news/national-news-from-the-associated-press/2019/12/01/the-latest-weather-delays-south-dakota-plane-crash-probe/
________________________________________
https://www.google.com/maps/place/Presho,+SD+57568/@43.9075587,-100.0672193,15z/data=!3m1!4b1!4m5!3m4!1s0x8781ad96b4f32437:0x55b0db5599a6638b!8m2!3d43.9097116!4d-100.0587343?hl=en-us
https://flightaware.com/live/flight/N56KJ/history/20191130/1820ZZ/9V9/KIDA
https://registry.faa.gov/aircraftinquiry/NNum_Results.aspx?NNumbertxt=N56KJ
https://www.jetphotos.com/photo/8438999 (photo)


Images:


Chamberlain, South Dakota, December 2, 2019

Revision history:

Date/timeContributorUpdates
30-Nov-2019 21:22 Captain Adam Added
01-Dec-2019 00:14 Geno Updated [Aircraft type, Location, Source]
01-Dec-2019 00:28 Geno Updated [Time, Aircraft type, Registration, Cn, Operator, Location, Destination airport, Source, Narrative]
01-Dec-2019 07:34 RobertMB Updated [Time, Registration, Total fatalities, Total occupants, Other fatalities, Location, Phase, Nature, Departure airport, Destination airport, Source, Damage, Narrative]
01-Dec-2019 07:44 harro Updated [Narrative]
01-Dec-2019 09:41 TB Updated [Location, Source]
01-Dec-2019 15:06 Iceman 29 Updated [Source, Embed code]
01-Dec-2019 22:18 Iceman 29 Updated [Source, Embed code, Narrative]
03-Dec-2019 18:09 wjlong Updated [Location, Source, Photo]
03-Dec-2019 21:05 Captain Adam Updated [Location, Embed code, Narrative]

Corrections or additions? ... Edit this accident description